sensor_id;sensor_type;location;lat;lon;timestamp;pressure;altitude;pressure_sealevel;temperature
69590;BMP180;56792;50.644;17.984;2023-07-31T00:01:58;99342.80;;;16.60
69590;BMP180;56792;50.644;17.984;2023-07-31T00:04:26;99343.80;;;16.60
69590;BMP180;56792;50.644;17.984;2023-07-31T00:06:54;99347.00;;;16.60
69590;BMP180;56792;50.644;17.984;2023-07-31T00:09:23;99350.40;;;16.60
69590;BMP180;56792;50.644;17.984;2023-07-31T00:11:51;99345.40;;;16.60
69590;BMP180;56792;50.644;17.984;2023-07-31T00:14:21;99347.40;;;16.50
69590;BMP180;56792;50.644;17.984;2023-07-31T00:16:49;99351.00;;;16.50
69590;BMP180;56792;50.644;17.984;2023-07-31T00:19:18;99350.20;;;16.50
69590;BMP180;56792;50.644;17.984;2023-07-31T00:21:46;99353.60;;;16.50
69590;BMP180;56792;50.644;17.984;2023-07-31T00:24:14;99357.60;;;16.50
69590;BMP180;56792;50.644;17.984;2023-07-31T00:26:43;99366.20;;;16.48
69590;BMP180;56792;50.644;17.984;2023-07-31T00:29:11;99365.40;;;16.48
69590;BMP180;56792;50.644;17.984;2023-07-31T00:31:39;99366.60;;;16.40
69590;BMP180;56792;50.644;17.984;2023-07-31T00:34:08;99364.20;;;16.40
69590;BMP180;56792;50.644;17.984;2023-07-31T00:36:37;99361.00;;;16.40
69590;BMP180;56792;50.644;17.984;2023-07-31T00:39:05;99364.20;;;16.40
69590;BMP180;56792;50.644;17.984;2023-07-31T00:41:34;99358.60;;;16.40
69590;BMP180;56792;50.644;17.984;2023-07-31T00:44:03;99360.40;;;16.40
69590;BMP180;56792;50.644;17.984;2023-07-31T00:46:32;99355.80;;;16.30
69590;BMP180;56792;50.644;17.984;2023-07-31T00:49:00;99356.20;;;16.30
69590;BMP180;56792;50.644;17.984;2023-07-31T00:51:29;99356.40;;;16.30
69590;BMP180;56792;50.644;17.984;2023-07-31T00:53:58;99358.40;;;16.30
69590;BMP180;56792;50.644;17.984;2023-07-31T00:56:28;99358.80;;;16.20
69590;BMP180;56792;50.644;17.984;2023-07-31T00:58:57;99364.40;;;16.20
69590;BMP180;56792;50.644;17.984;2023-07-31T01:01:25;99361.40;;;16.20
69590;BMP180;56792;50.644;17.984;2023-07-31T01:03:54;99361.60;;;16.20
69590;BMP180;56792;50.644;17.984;2023-07-31T01:06:37;99367.00;;;16.20
69590;BMP180;56792;50.644;17.984;2023-07-31T01:09:15;99369.40;;;16.10
69590;BMP180;56792;50.644;17.984;2023-07-31T01:11:53;99369.60;;;16.10
69590;BMP180;56792;50.644;17.984;2023-07-31T01:14:24;99370.00;;;16.10
69590;BMP180;56792;50.644;17.984;2023-07-31T01:16:52;99368.20;;;16.16
69590;BMP180;56792;50.644;17.984;2023-07-31T01:19:24;99369.40;;;16.10
69590;BMP180;56792;50.644;17.984;2023-07-31T01:22:29;99368.40;;;16.20
69590;BMP180;56792;50.644;17.984;2023-07-31T01:25:19;99377.40;;;16.20
69590;BMP180;56792;50.644;17.984;2023-07-31T01:27:59;99375.00;;;16.20
69590;BMP180;56792;50.644;17.984;2023-07-31T01:30:37;99375.60;;;16.20
69590;BMP180;56792;50.644;17.984;2023-07-31T01:33:05;99373.00;;;16.20
69590;BMP180;56792;50.644;17.984;2023-07-31T01:35:36;99373.80;;;16.22
69590;BMP180;56792;50.644;17.984;2023-07-31T01:38:06;99370.00;;;16.24
69590;BMP180;56792;50.644;17.984;2023-07-31T01:40:34;99374.00;;;16.30
69590;BMP180;56792;50.644;17.984;2023-07-31T01:43:02;99374.20;;;16.30
69590;BMP180;56792;50.644;17.984;2023-07-31T01:45:31;99376.80;;;16.30
69590;BMP180;56792;50.644;17.984;2023-07-31T01:47:59;99378.80;;;16.40
69590;BMP180;56792;50.644;17.984;2023-07-31T01:50:27;99378.00;;;16.40
69590;BMP180;56792;50.644;17.984;2023-07-31T01:52:56;99380.00;;;16.40
69590;BMP180;56792;50.644;17.984;2023-07-31T01:55:25;99373.20;;;16.40
69590;BMP180;56792;50.644;17.984;2023-07-31T01:57:54;99374.60;;;16.44
69590;BMP180;56792;50.644;17.984;2023-07-31T02:00:22;99373.80;;;16.50
69590;BMP180;56792;50.644;17.984;2023-07-31T02:02:51;99371.40;;;16.50
69590;BMP180;56792;50.644;17.984;2023-07-31T02:05:21;99376.20;;;16.50
69590;BMP180;56792;50.644;17.984;2023-07-31T02:07:49;99375.00;;;16.50
69590;BMP180;56792;50.644;17.984;2023-07-31T02:10:18;99373.00;;;16.50
69590;BMP180;56792;50.644;17.984;2023-07-31T02:12:46;99375.80;;;16.60
69590;BMP180;56792;50.644;17.984;2023-07-31T02:15:15;99376.00;;;16.58
69590;BMP180;56792;50.644;17.984;2023-07-31T02:17:46;99379.20;;;16.60
69590;BMP180;56792;50.644;17.984;2023-07-31T02:20:14;99377.60;;;16.60
69590;BMP180;56792;50.644;17.984;2023-07-31T02:22:43;99382.60;;;16.60
69590;BMP180;56792;50.644;17.984;2023-07-31T02:25:11;99378.60;;;16.60
69590;BMP180;56792;50.644;17.984;2023-07-31T02:27:39;99378.80;;;16.60
69590;BMP180;56792;50.644;17.984;2023-07-31T02:30:11;99386.20;;;16.60
69590;BMP180;56792;50.644;17.984;2023-07-31T02:32:39;99387.40;;;16.60
69590;BMP180;56792;50.644;17.984;2023-07-31T02:35:09;99385.20;;;16.62
69590;BMP180;56792;50.644;17.984;2023-07-31T02:37:37;99384.40;;;16.70
69590;BMP180;56792;50.644;17.984;2023-07-31T02:40:09;99382.00;;;16.70
69590;BMP180;56792;50.644;17.984;2023-07-31T02:42:37;99387.20;;;16.70
69590;BMP180;56792;50.644;17.984;2023-07-31T02:45:09;99388.80;;;16.70
69590;BMP180;56792;50.644;17.984;2023-07-31T02:47:37;99387.00;;;16.70
69590;BMP180;56792;50.644;17.984;2023-07-31T02:50:07;99383.80;;;16.70
69590;BMP180;56792;50.644;17.984;2023-07-31T02:52:36;99383.40;;;16.70
69590;BMP180;56792;50.644;17.984;2023-07-31T02:55:06;99383.60;;;16.70
69590;BMP180;56792;50.644;17.984;2023-07-31T02:57:35;99387.00;;;16.70
69590;BMP180;56792;50.644;17.984;2023-07-31T03:00:05;99383.80;;;16.70
69590;BMP180;56792;50.644;17.984;2023-07-31T03:02:34;99383.60;;;16.70
69590;BMP180;56792;50.644;17.984;2023-07-31T03:05:03;99390.20;;;16.70
69590;BMP180;56792;50.644;17.984;2023-07-31T03:07:32;99390.60;;;16.70
69590;BMP180;56792;50.644;17.984;2023-07-31T03:10:01;99391.00;;;16.70
69590;BMP180;56792;50.644;17.984;2023-07-31T03:12:30;99393.80;;;16.70
69590;BMP180;56792;50.644;17.984;2023-07-31T03:14:58;99398.20;;;16.70
69590;BMP180;56792;50.644;17.984;2023-07-31T03:17:27;99400.80;;;16.66
69590;BMP180;56792;50.644;17.984;2023-07-31T03:19:55;99406.00;;;16.60
69590;BMP180;56792;50.644;17.984;2023-07-31T03:22:23;99405.20;;;16.60
69590;BMP180;56792;50.644;17.984;2023-07-31T03:24:52;99402.80;;;16.64
69590;BMP180;56792;50.644;17.984;2023-07-31T03:27:21;99403.00;;;16.62
69590;BMP180;56792;50.644;17.984;2023-07-31T03:29:49;99405.00;;;16.70
69590;BMP180;56792;50.644;17.984;2023-07-31T03:32:19;99410.20;;;16.64
69590;BMP180;56792;50.644;17.984;2023-07-31T03:34:47;99406.80;;;16.62
69590;BMP180;56792;50.644;17.984;2023-07-31T03:37:15;99404.60;;;16.60
69590;BMP180;56792;50.644;17.984;2023-07-31T03:39:44;99405.20;;;16.70
69590;BMP180;56792;50.644;17.984;2023-07-31T03:42:12;99404.60;;;16.70
69590;BMP180;56792;50.644;17.984;2023-07-31T03:44:41;99404.40;;;16.70
69590;BMP180;56792;50.644;17.984;2023-07-31T03:47:10;99407.40;;;16.74
69590;BMP180;56792;50.644;17.984;2023-07-31T03:49:39;99406.20;;;16.80
69590;BMP180;56792;50.644;17.984;2023-07-31T03:52:08;99410.80;;;16.80
69590;BMP180;56792;50.644;17.984;2023-07-31T03:54:36;99418.00;;;16.80
69590;BMP180;56792;50.644;17.984;2023-07-31T03:57:06;99419.80;;;16.80
69590;BMP180;56792;50.644;17.984;2023-07-31T03:59:34;99419.60;;;16.82
69590;BMP180;56792;50.644;17.984;2023-07-31T04:02:03;99421.40;;;16.90
69590;BMP180;56792;50.644;17.984;2023-07-31T04:04:32;99422.80;;;16.90
69590;BMP180;56792;50.644;17.984;2023-07-31T04:07:00;99419.80;;;16.90
69590;BMP180;56792;50.644;17.984;2023-07-31T04:09:28;99420.80;;;16.90
69590;BMP180;56792;50.644;17.984;2023-07-31T04:11:57;99422.40;;;16.90
69590;BMP180;56792;50.644;17.984;2023-07-31T04:14:25;99419.60;;;16.90
69590;BMP180;56792;50.644;17.984;2023-07-31T04:16:53;99422.00;;;16.90
69590;BMP180;56792;50.644;17.984;2023-07-31T04:19:22;99417.60;;;16.90
69590;BMP180;56792;50.644;17.984;2023-07-31T04:21:50;99420.80;;;16.90
69590;BMP180;56792;50.644;17.984;2023-07-31T04:24:19;99423.80;;;16.90
69590;BMP180;56792;50.644;17.984;2023-07-31T04:26:52;99423.60;;;16.90
69590;BMP180;56792;50.644;17.984;2023-07-31T04:29:21;99424.20;;;16.90
69590;BMP180;56792;50.644;17.984;2023-07-31T04:31:50;99427.40;;;16.90
69590;BMP180;56792;50.644;17.984;2023-07-31T04:34:18;99429.80;;;16.90
69590;BMP180;56792;50.644;17.984;2023-07-31T04:36:46;99433.40;;;16.90
69590;BMP180;56792;50.644;17.984;2023-07-31T04:39:14;99434.40;;;16.90
69590;BMP180;56792;50.644;17.984;2023-07-31T04:41:43;99429.60;;;17.00
69590;BMP180;56792;50.644;17.984;2023-07-31T04:44:11;99431.20;;;17.00
69590;BMP180;56792;50.644;17.984;2023-07-31T04:46:40;99429.00;;;17.04
69590;BMP180;56792;50.644;17.984;2023-07-31T04:49:08;99428.80;;;17.10
69590;BMP180;56792;50.644;17.984;2023-07-31T04:51:37;99427.00;;;17.10
69590;BMP180;56792;50.644;17.984;2023-07-31T04:54:05;99429.20;;;17.12
69590;BMP180;56792;50.644;17.984;2023-07-31T04:56:34;99429.60;;;17.20
69590;BMP180;56792;50.644;17.984;2023-07-31T04:59:02;99428.20;;;17.20
69590;BMP180;56792;50.644;17.984;2023-07-31T05:01:30;99426.00;;;17.20
69590;BMP180;56792;50.644;17.984;2023-07-31T05:03:59;99426.20;;;17.20
69590;BMP180;56792;50.644;17.984;2023-07-31T05:06:27;99425.20;;;17.20
69590;BMP180;56792;50.644;17.984;2023-07-31T05:08:56;99430.80;;;17.30
69590;BMP180;56792;50.644;17.984;2023-07-31T05:11:24;99430.00;;;17.30
69590;BMP180;56792;50.644;17.984;2023-07-31T05:13:52;99426.60;;;17.30
69590;BMP180;56792;50.644;17.984;2023-07-31T05:16:21;99424.40;;;17.30
69590;BMP180;56792;50.644;17.984;2023-07-31T05:18:49;99425.20;;;17.40
69590;BMP180;56792;50.644;17.984;2023-07-31T05:21:17;99421.00;;;17.40
69590;BMP180;56792;50.644;17.984;2023-07-31T05:23:46;99414.80;;;17.50
69590;BMP180;56792;50.644;17.984;2023-07-31T05:26:15;99410.60;;;17.50
69590;BMP180;56792;50.644;17.984;2023-07-31T05:28:43;99407.40;;;17.60
69590;BMP180;56792;50.644;17.984;2023-07-31T05:31:12;99408.80;;;17.70
69590;BMP180;56792;50.644;17.984;2023-07-31T05:33:40;99409.60;;;17.70
69590;BMP180;56792;50.644;17.984;2023-07-31T05:36:08;99406.00;;;17.80
69590;BMP180;56792;50.644;17.984;2023-07-31T05:38:37;99401.40;;;17.90
69590;BMP180;56792;50.644;17.984;2023-07-31T05:41:05;99401.60;;;17.96
69590;BMP180;56792;50.644;17.984;2023-07-31T05:43:34;99402.40;;;18.00
69590;BMP180;56792;50.644;17.984;2023-07-31T05:46:02;99401.40;;;18.10
69590;BMP180;56792;50.644;17.984;2023-07-31T05:48:30;99404.00;;;18.10
69590;BMP180;56792;50.644;17.984;2023-07-31T05:50:58;99400.20;;;18.20
69590;BMP180;56792;50.644;17.984;2023-07-31T05:53:27;99403.40;;;18.30
69590;BMP180;56792;50.644;17.984;2023-07-31T05:55:55;99402.00;;;18.30
69590;BMP180;56792;50.644;17.984;2023-07-31T05:58:24;99401.60;;;18.40
69590;BMP180;56792;50.644;17.984;2023-07-31T06:00:52;99407.20;;;18.40
69590;BMP180;56792;50.644;17.984;2023-07-31T06:03:21;99411.20;;;18.50
69590;BMP180;56792;50.644;17.984;2023-07-31T06:05:49;99411.40;;;18.60
69590;BMP180;56792;50.644;17.984;2023-07-31T06:08:17;99405.80;;;18.70
69590;BMP180;56792;50.644;17.984;2023-07-31T06:10:46;99408.40;;;18.70
69590;BMP180;56792;50.644;17.984;2023-07-31T06:13:14;99412.00;;;18.80
69590;BMP180;56792;50.644;17.984;2023-07-31T06:15:42;99412.60;;;18.80
69590;BMP180;56792;50.644;17.984;2023-07-31T06:18:10;99418.20;;;18.82
69590;BMP180;56792;50.644;17.984;2023-07-31T06:20:39;99416.40;;;18.80
69590;BMP180;56792;50.644;17.984;2023-07-31T06:23:08;99417.80;;;18.90
69590;BMP180;56792;50.644;17.984;2023-07-31T06:25:36;99420.20;;;18.90
69590;BMP180;56792;50.644;17.984;2023-07-31T06:28:05;99425.20;;;19.00
69590;BMP180;56792;50.644;17.984;2023-07-31T06:30:33;99428.00;;;19.10
69590;BMP180;56792;50.644;17.984;2023-07-31T06:33:02;99423.20;;;19.14
69590;BMP180;56792;50.644;17.984;2023-07-31T06:35:30;99425.40;;;19.20
69590;BMP180;56792;50.644;17.984;2023-07-31T06:37:58;99426.80;;;19.40
69590;BMP180;56792;50.644;17.984;2023-07-31T06:40:27;99425.60;;;19.50
69590;BMP180;56792;50.644;17.984;2023-07-31T06:42:55;99425.20;;;19.66
69590;BMP180;56792;50.644;17.984;2023-07-31T06:45:24;99428.80;;;19.72
69590;BMP180;56792;50.644;17.984;2023-07-31T06:47:52;99429.60;;;19.90
69590;BMP180;56792;50.644;17.984;2023-07-31T06:50:20;99429.20;;;20.00
69590;BMP180;56792;50.644;17.984;2023-07-31T06:52:49;99431.40;;;20.10
69590;BMP180;56792;50.644;17.984;2023-07-31T06:55:21;99434.40;;;20.20
69590;BMP180;56792;50.644;17.984;2023-07-31T06:57:52;99434.00;;;20.40
69590;BMP180;56792;50.644;17.984;2023-07-31T07:00:22;99434.80;;;20.50
69590;BMP180;56792;50.644;17.984;2023-07-31T07:02:51;99432.40;;;20.60
69590;BMP180;56792;50.644;17.984;2023-07-31T07:05:20;99429.40;;;20.70
69590;BMP180;56792;50.644;17.984;2023-07-31T07:07:51;99427.20;;;20.80
69590;BMP180;56792;50.644;17.984;2023-07-31T07:10:20;99423.80;;;20.98
69590;BMP180;56792;50.644;17.984;2023-07-31T07:12:49;99426.00;;;21.10
69590;BMP180;56792;50.644;17.984;2023-07-31T07:15:18;99425.40;;;21.20
69590;BMP180;56792;50.644;17.984;2023-07-31T07:17:46;99428.00;;;21.30
69590;BMP180;56792;50.644;17.984;2023-07-31T07:20:15;99424.00;;;21.50
69590;BMP180;56792;50.644;17.984;2023-07-31T07:22:43;99430.20;;;21.76
69590;BMP180;56792;50.644;17.984;2023-07-31T07:25:11;99429.00;;;22.00
69590;BMP180;56792;50.644;17.984;2023-07-31T07:27:40;99423.80;;;22.20
69590;BMP180;56792;50.644;17.984;2023-07-31T07:30:10;99427.40;;;22.40
69590;BMP180;56792;50.644;17.984;2023-07-31T07:32:39;99425.40;;;22.60
69590;BMP180;56792;50.644;17.984;2023-07-31T07:35:09;99423.60;;;22.70
69590;BMP180;56792;50.644;17.984;2023-07-31T07:37:37;99424.60;;;22.74
69590;BMP180;56792;50.644;17.984;2023-07-31T07:40:09;99427.40;;;22.76
69590;BMP180;56792;50.644;17.984;2023-07-31T07:42:37;99424.00;;;22.80
69590;BMP180;56792;50.644;17.984;2023-07-31T07:45:09;99426.60;;;22.88
69590;BMP180;56792;50.644;17.984;2023-07-31T07:47:40;99423.60;;;23.10
69590;BMP180;56792;50.644;17.984;2023-07-31T07:50:10;99422.80;;;23.30
69590;BMP180;56792;50.644;17.984;2023-07-31T07:52:38;99422.00;;;23.20
69590;BMP180;56792;50.644;17.984;2023-07-31T07:55:08;99420.40;;;23.20
69590;BMP180;56792;50.644;17.984;2023-07-31T07:57:37;99419.40;;;23.40
69590;BMP180;56792;50.644;17.984;2023-07-31T08:00:08;99420.00;;;23.50
69590;BMP180;56792;50.644;17.984;2023-07-31T08:02:44;99420.60;;;23.70
69590;BMP180;56792;50.644;17.984;2023-07-31T08:05:12;99417.20;;;24.00
69590;BMP180;56792;50.644;17.984;2023-07-31T08:07:40;99417.80;;;24.10
69590;BMP180;56792;50.644;17.984;2023-07-31T08:10:10;99412.40;;;24.00
69590;BMP180;56792;50.644;17.984;2023-07-31T08:12:38;99413.80;;;24.02
69590;BMP180;56792;50.644;17.984;2023-07-31T08:15:09;99411.80;;;24.20
69590;BMP180;56792;50.644;17.984;2023-07-31T08:17:37;99404.80;;;24.10
69590;BMP180;56792;50.644;17.984;2023-07-31T08:20:09;99397.00;;;24.28
69590;BMP180;56792;50.644;17.984;2023-07-31T08:22:38;99396.40;;;24.40
69590;BMP180;56792;50.644;17.984;2023-07-31T08:25:08;99394.80;;;24.50
69590;BMP180;56792;50.644;17.984;2023-07-31T08:27:36;99403.00;;;24.60
69590;BMP180;56792;50.644;17.984;2023-07-31T08:30:08;99396.40;;;24.70
69590;BMP180;56792;50.644;17.984;2023-07-31T08:32:36;99399.80;;;25.02
69590;BMP180;56792;50.644;17.984;2023-07-31T08:35:06;99399.40;;;25.20
69590;BMP180;56792;50.644;17.984;2023-07-31T08:37:34;99399.00;;;25.44
69590;BMP180;56792;50.644;17.984;2023-07-31T08:40:05;99406.00;;;25.56
69590;BMP180;56792;50.644;17.984;2023-07-31T08:42:34;99407.40;;;25.50
69590;BMP180;56792;50.644;17.984;2023-07-31T08:45:15;99400.80;;;25.40
69590;BMP180;56792;50.644;17.984;2023-07-31T08:47:47;99395.60;;;25.20
69590;BMP180;56792;50.644;17.984;2023-07-31T08:50:18;99395.80;;;25.02
69590;BMP180;56792;50.644;17.984;2023-07-31T08:52:48;99401.40;;;24.90
69590;BMP180;56792;50.644;17.984;2023-07-31T08:55:17;99402.60;;;25.00
69590;BMP180;56792;50.644;17.984;2023-07-31T08:57:46;99406.60;;;25.00
69590;BMP180;56792;50.644;17.984;2023-07-31T09:00:16;99402.20;;;25.20
69590;BMP180;56792;50.644;17.984;2023-07-31T09:02:51;99401.00;;;25.32
69590;BMP180;56792;50.644;17.984;2023-07-31T09:05:21;99409.60;;;25.34
69590;BMP180;56792;50.644;17.984;2023-07-31T09:07:52;99401.40;;;25.30
69590;BMP180;56792;50.644;17.984;2023-07-31T09:10:20;99405.80;;;25.20
69590;BMP180;56792;50.644;17.984;2023-07-31T09:12:52;99399.60;;;25.40
69590;BMP180;56792;50.644;17.984;2023-07-31T09:15:21;99391.20;;;25.82
69590;BMP180;56792;50.644;17.984;2023-07-31T09:18:00;99399.20;;;26.18
69590;BMP180;56792;50.644;17.984;2023-07-31T09:20:29;99392.40;;;26.20
69590;BMP180;56792;50.644;17.984;2023-07-31T09:22:57;99395.80;;;26.40
69590;BMP180;56792;50.644;17.984;2023-07-31T09:25:32;99402.20;;;26.80
69590;BMP180;56792;50.644;17.984;2023-07-31T09:28:03;99397.60;;;26.98
69590;BMP180;56792;50.644;17.984;2023-07-31T09:30:45;99404.20;;;27.40
69590;BMP180;56792;50.644;17.984;2023-07-31T09:33:13;99387.60;;;27.68
69590;BMP180;56792;50.644;17.984;2023-07-31T09:35:42;99387.40;;;28.00
69590;BMP180;56792;50.644;17.984;2023-07-31T09:38:13;99387.40;;;28.40
69590;BMP180;56792;50.644;17.984;2023-07-31T09:40:44;99384.40;;;28.50
69590;BMP180;56792;50.644;17.984;2023-07-31T09:43:17;99386.80;;;28.80
69590;BMP180;56792;50.644;17.984;2023-07-31T09:45:46;99386.80;;;28.70
69590;BMP180;56792;50.644;17.984;2023-07-31T09:48:17;99399.80;;;28.70
69590;BMP180;56792;50.644;17.984;2023-07-31T09:50:48;99394.60;;;28.40
69590;BMP180;56792;50.644;17.984;2023-07-31T09:53:17;99385.00;;;28.50
69590;BMP180;56792;50.644;17.984;2023-07-31T09:55:45;99393.60;;;28.60
69590;BMP180;56792;50.644;17.984;2023-07-31T09:58:14;99389.20;;;28.66
69590;BMP180;56792;50.644;17.984;2023-07-31T10:00:42;99393.00;;;28.90
69590;BMP180;56792;50.644;17.984;2023-07-31T10:03:12;99391.20;;;28.84
69590;BMP180;56792;50.644;17.984;2023-07-31T10:05:47;99389.00;;;28.50
69590;BMP180;56792;50.644;17.984;2023-07-31T10:08:19;99384.80;;;28.50
69590;BMP180;56792;50.644;17.984;2023-07-31T10:10:48;99384.80;;;28.40
69590;BMP180;56792;50.644;17.984;2023-07-31T10:13:18;99383.20;;;28.40
69590;BMP180;56792;50.644;17.984;2023-07-31T10:15:50;99379.40;;;27.86
69590;BMP180;56792;50.644;17.984;2023-07-31T10:18:20;99380.80;;;27.60
69590;BMP180;56792;50.644;17.984;2023-07-31T10:20:49;99382.60;;;27.50
69590;BMP180;56792;50.644;17.984;2023-07-31T10:23:19;99385.80;;;27.30
69590;BMP180;56792;50.644;17.984;2023-07-31T10:25:47;99381.80;;;27.20
69590;BMP180;56792;50.644;17.984;2023-07-31T10:28:16;99382.60;;;26.90
69590;BMP180;56792;50.644;17.984;2023-07-31T10:30:46;99381.00;;;26.40
69590;BMP180;56792;50.644;17.984;2023-07-31T10:33:15;99387.40;;;26.18
69590;BMP180;56792;50.644;17.984;2023-07-31T10:35:44;99386.60;;;25.98
69590;BMP180;56792;50.644;17.984;2023-07-31T10:38:13;99390.00;;;25.70
69590;BMP180;56792;50.644;17.984;2023-07-31T10:40:42;99384.20;;;25.50
69590;BMP180;56792;50.644;17.984;2023-07-31T10:43:24;99384.40;;;25.50
69590;BMP180;56792;50.644;17.984;2023-07-31T10:45:53;99382.60;;;25.40
69590;BMP180;56792;50.644;17.984;2023-07-31T10:48:23;99384.00;;;25.40
69590;BMP180;56792;50.644;17.984;2023-07-31T10:50:55;99386.60;;;25.40
69590;BMP180;56792;50.644;17.984;2023-07-31T10:53:28;99383.20;;;25.10
69590;BMP180;56792;50.644;17.984;2023-07-31T10:56:00;99385.00;;;24.90
69590;BMP180;56792;50.644;17.984;2023-07-31T10:58:30;99384.60;;;24.90
69590;BMP180;56792;50.644;17.984;2023-07-31T11:01:02;99379.60;;;25.10
69590;BMP180;56792;50.644;17.984;2023-07-31T11:03:44;99385.40;;;25.40
69590;BMP180;56792;50.644;17.984;2023-07-31T11:06:14;99376.20;;;25.94
69590;BMP180;56792;50.644;17.984;2023-07-31T11:08:46;99374.00;;;26.82
69590;BMP180;56792;50.644;17.984;2023-07-31T11:11:17;99376.80;;;27.00
69590;BMP180;56792;50.644;17.984;2023-07-31T11:13:47;99377.20;;;27.00
69590;BMP180;56792;50.644;17.984;2023-07-31T11:16:18;99372.80;;;27.00
69590;BMP180;56792;50.644;17.984;2023-07-31T11:18:49;99374.80;;;26.84
69590;BMP180;56792;50.644;17.984;2023-07-31T11:21:21;99369.40;;;26.42
69590;BMP180;56792;50.644;17.984;2023-07-31T11:23:51;99374.80;;;26.56
69590;BMP180;56792;50.644;17.984;2023-07-31T11:26:21;99371.40;;;26.98
69590;BMP180;56792;50.644;17.984;2023-07-31T11:28:50;99371.20;;;27.04
69590;BMP180;56792;50.644;17.984;2023-07-31T11:31:18;99376.60;;;26.80
69590;BMP180;56792;50.644;17.984;2023-07-31T11:33:48;99370.60;;;26.70
69590;BMP180;56792;50.644;17.984;2023-07-31T11:36:18;99369.20;;;26.70
69590;BMP180;56792;50.644;17.984;2023-07-31T11:38:47;99368.60;;;26.80
69590;BMP180;56792;50.644;17.984;2023-07-31T11:41:16;99369.00;;;26.60
69590;BMP180;56792;50.644;17.984;2023-07-31T11:43:46;99365.40;;;26.98
69590;BMP180;56792;50.644;17.984;2023-07-31T11:46:14;99358.20;;;28.38
69590;BMP180;56792;50.644;17.984;2023-07-31T11:48:43;99364.20;;;30.24
69590;BMP180;56792;50.644;17.984;2023-07-31T11:51:14;99354.40;;;31.34
69590;BMP180;56792;50.644;17.984;2023-07-31T11:53:45;99363.40;;;32.18
69590;BMP180;56792;50.644;17.984;2023-07-31T11:56:18;99354.80;;;31.88
69590;BMP180;56792;50.644;17.984;2023-07-31T11:58:50;99356.60;;;32.94
69590;BMP180;56792;50.644;17.984;2023-07-31T12:01:21;99354.00;;;33.60
69590;BMP180;56792;50.644;17.984;2023-07-31T12:03:51;99350.80;;;34.44
69590;BMP180;56792;50.644;17.984;2023-07-31T12:06:20;99342.80;;;34.82
69590;BMP180;56792;50.644;17.984;2023-07-31T12:08:49;99344.00;;;35.46
69590;BMP180;56792;50.644;17.984;2023-07-31T12:11:17;99349.40;;;35.76
69590;BMP180;56792;50.644;17.984;2023-07-31T12:13:45;99350.20;;;35.88
69590;BMP180;56792;50.644;17.984;2023-07-31T12:16:14;99341.00;;;36.10
69590;BMP180;56792;50.644;17.984;2023-07-31T12:18:42;99341.60;;;35.80
69590;BMP180;56792;50.644;17.984;2023-07-31T12:21:12;99333.80;;;36.20
69590;BMP180;56792;50.644;17.984;2023-07-31T12:23:41;99337.20;;;36.16
69590;BMP180;56792;50.644;17.984;2023-07-31T12:26:13;99328.80;;;35.50
69590;BMP180;56792;50.644;17.984;2023-07-31T12:28:44;99326.60;;;36.44
69590;BMP180;56792;50.644;17.984;2023-07-31T12:31:15;99327.20;;;37.62
69590;BMP180;56792;50.644;17.984;2023-07-31T12:33:46;99322.80;;;37.62
69590;BMP180;56792;50.644;17.984;2023-07-31T12:36:17;99315.40;;;37.40
69590;BMP180;56792;50.644;17.984;2023-07-31T12:38:46;99316.20;;;37.00
69590;BMP180;56792;50.644;17.984;2023-07-31T12:41:14;99308.60;;;37.02
69590;BMP180;56792;50.644;17.984;2023-07-31T12:43:44;99309.40;;;37.40
69590;BMP180;56792;50.644;17.984;2023-07-31T12:46:13;99296.40;;;36.70
69590;BMP180;56792;50.644;17.984;2023-07-31T12:48:42;99289.80;;;37.58
69590;BMP180;56792;50.644;17.984;2023-07-31T12:51:10;99302.20;;;38.60
69590;BMP180;56792;50.644;17.984;2023-07-31T12:53:39;99291.40;;;38.20
69590;BMP180;56792;50.644;17.984;2023-07-31T12:56:07;99289.20;;;39.16
69590;BMP180;56792;50.644;17.984;2023-07-31T12:58:35;99293.40;;;38.94
69590;BMP180;56792;50.644;17.984;2023-07-31T13:01:04;99287.60;;;38.60
69590;BMP180;56792;50.644;17.984;2023-07-31T13:03:33;99290.80;;;39.00
69590;BMP180;56792;50.644;17.984;2023-07-31T13:06:01;99296.40;;;38.64
69590;BMP180;56792;50.644;17.984;2023-07-31T13:08:31;99291.00;;;38.24
69590;BMP180;56792;50.644;17.984;2023-07-31T13:10:59;99300.00;;;37.92
69590;BMP180;56792;50.644;17.984;2023-07-31T13:13:27;99297.40;;;36.54
69590;BMP180;56792;50.644;17.984;2023-07-31T13:15:57;99292.60;;;35.56
69590;BMP180;56792;50.644;17.984;2023-07-31T13:18:25;99291.20;;;35.30
69590;BMP180;56792;50.644;17.984;2023-07-31T13:20:53;99282.00;;;35.16
69590;BMP180;56792;50.644;17.984;2023-07-31T13:23:22;99288.00;;;35.50
69590;BMP180;56792;50.644;17.984;2023-07-31T13:25:50;99279.80;;;35.00
69590;BMP180;56792;50.644;17.984;2023-07-31T13:28:19;99273.60;;;34.60
69590;BMP180;56792;50.644;17.984;2023-07-31T13:30:47;99271.40;;;33.68
69590;BMP180;56792;50.644;17.984;2023-07-31T13:33:15;99270.60;;;32.88
69590;BMP180;56792;50.644;17.984;2023-07-31T13:35:44;99272.20;;;32.70
69590;BMP180;56792;50.644;17.984;2023-07-31T13:38:12;99271.20;;;32.44
69590;BMP180;56792;50.644;17.984;2023-07-31T13:40:40;99269.20;;;31.92
69590;BMP180;56792;50.644;17.984;2023-07-31T13:43:09;99266.00;;;31.58
69590;BMP180;56792;50.644;17.984;2023-07-31T13:45:37;99267.80;;;30.96
69590;BMP180;56792;50.644;17.984;2023-07-31T13:48:06;99262.40;;;30.74
69590;BMP180;56792;50.644;17.984;2023-07-31T13:50:34;99259.80;;;30.72
69590;BMP180;56792;50.644;17.984;2023-07-31T13:53:02;99262.60;;;30.38
69590;BMP180;56792;50.644;17.984;2023-07-31T13:55:31;99258.60;;;30.10
69590;BMP180;56792;50.644;17.984;2023-07-31T13:57:59;99258.40;;;29.90
69590;BMP180;56792;50.644;17.984;2023-07-31T14:00:27;99253.20;;;29.60
69590;BMP180;56792;50.644;17.984;2023-07-31T14:02:56;99252.20;;;29.30
69590;BMP180;56792;50.644;17.984;2023-07-31T14:05:24;99262.80;;;29.18
69590;BMP180;56792;50.644;17.984;2023-07-31T14:07:53;99254.40;;;28.50
69590;BMP180;56792;50.644;17.984;2023-07-31T14:10:21;99248.80;;;28.40